sensor_id;sensor_type;location;lat;lon;timestamp;temperature;humidity
70986;DHT22;58645;43.068;25.610;2023-12-14T00:00:28;11.90;99.90
70986;DHT22;58645;43.068;25.610;2023-12-14T00:02:54;12.00;99.90
70986;DHT22;58645;43.068;25.610;2023-12-14T00:05:20;12.00;99.90
70986;DHT22;58645;43.068;25.610;2023-12-14T00:07:46;12.10;99.90
70986;DHT22;58645;43.068;25.610;2023-12-14T00:10:13;12.10;99.90
70986;DHT22;58645;43.068;25.610;2023-12-14T00:12:38;12.10;99.90
70986;DHT22;58645;43.068;25.610;2023-12-14T00:15:05;12.00;99.90
70986;DHT22;58645;43.068;25.610;2023-12-14T00:17:31;12.10;99.90
70986;DHT22;58645;43.068;25.610;2023-12-14T00:19:57;12.10;99.90
70986;DHT22;58645;43.068;25.610;2023-12-14T00:22:22;12.20;99.90
70986;DHT22;58645;43.068;25.610;2023-12-14T00:24:48;12.20;99.90
70986;DHT22;58645;43.068;25.610;2023-12-14T00:27:14;12.40;99.90
70986;DHT22;58645;43.068;25.610;2023-12-14T00:29:39;12.40;99.70
70986;DHT22;58645;43.068;25.610;2023-12-14T00:32:05;12.40;99.40
70986;DHT22;58645;43.068;25.610;2023-12-14T00:34:31;12.40;99.00
70986;DHT22;58645;43.068;25.610;2023-12-14T00:36:57;12.40;98.50
70986;DHT22;58645;43.068;25.610;2023-12-14T00:39:23;12.40;98.30
70986;DHT22;58645;43.068;25.610;2023-12-14T00:41:49;12.50;98.20
70986;DHT22;58645;43.068;25.610;2023-12-14T00:44:14;12.50;98.30
70986;DHT22;58645;43.068;25.610;2023-12-14T00:46:40;12.40;97.80
70986;DHT22;58645;43.068;25.610;2023-12-14T00:49:07;12.50;97.70
70986;DHT22;58645;43.068;25.610;2023-12-14T00:51:33;12.50;97.50
70986;DHT22;58645;43.068;25.610;2023-12-14T00:53:58;12.40;97.60
70986;DHT22;58645;43.068;25.610;2023-12-14T00:56:24;12.40;97.60
70986;DHT22;58645;43.068;25.610;2023-12-14T00:58:50;12.40;97.80
70986;DHT22;58645;43.068;25.610;2023-12-14T01:01:15;12.30;97.80
70986;DHT22;58645;43.068;25.610;2023-12-14T01:03:41;12.30;97.90
70986;DHT22;58645;43.068;25.610;2023-12-14T01:06:07;12.30;97.80
70986;DHT22;58645;43.068;25.610;2023-12-14T01:08:32;12.40;97.20
70986;DHT22;58645;43.068;25.610;2023-12-14T01:10:58;12.40;97.20
70986;DHT22;58645;43.068;25.610;2023-12-14T01:13:24;12.40;97.10
70986;DHT22;58645;43.068;25.610;2023-12-14T01:15:50;12.40;96.80
70986;DHT22;58645;43.068;25.610;2023-12-14T01:18:15;12.40;96.70
70986;DHT22;58645;43.068;25.610;2023-12-14T01:20:42;12.40;96.80
70986;DHT22;58645;43.068;25.610;2023-12-14T01:23:08;12.40;96.90
70986;DHT22;58645;43.068;25.610;2023-12-14T01:25:37;12.30;96.70
70986;DHT22;58645;43.068;25.610;2023-12-14T01:28:03;12.30;96.70
70986;DHT22;58645;43.068;25.610;2023-12-14T01:30:29;12.30;96.50
70986;DHT22;58645;43.068;25.610;2023-12-14T01:32:54;12.30;96.80
70986;DHT22;58645;43.068;25.610;2023-12-14T01:35:20;12.30;96.40
70986;DHT22;58645;43.068;25.610;2023-12-14T01:37:46;12.30;96.00
70986;DHT22;58645;43.068;25.610;2023-12-14T01:40:12;12.40;95.80
70986;DHT22;58645;43.068;25.610;2023-12-14T01:42:37;12.40;95.40
70986;DHT22;58645;43.068;25.610;2023-12-14T01:45:04;12.40;95.00
70986;DHT22;58645;43.068;25.610;2023-12-14T01:47:30;12.50;94.50
70986;DHT22;58645;43.068;25.610;2023-12-14T01:49:56;12.50;94.50
70986;DHT22;58645;43.068;25.610;2023-12-14T01:52:22;12.50;94.50
70986;DHT22;58645;43.068;25.610;2023-12-14T01:54:48;12.40;94.40
70986;DHT22;58645;43.068;25.610;2023-12-14T01:57:13;12.50;94.40
70986;DHT22;58645;43.068;25.610;2023-12-14T01:59:39;12.50;93.60
70986;DHT22;58645;43.068;25.610;2023-12-14T02:02:05;12.50;93.30
70986;DHT22;58645;43.068;25.610;2023-12-14T02:04:31;12.60;93.10
70986;DHT22;58645;43.068;25.610;2023-12-14T02:06:57;12.60;93.30
70986;DHT22;58645;43.068;25.610;2023-12-14T02:09:22;12.60;93.00
70986;DHT22;58645;43.068;25.610;2023-12-14T02:11:48;12.50;92.80
70986;DHT22;58645;43.068;25.610;2023-12-14T02:14:14;12.60;93.00
70986;DHT22;58645;43.068;25.610;2023-12-14T02:16:40;12.60;92.80
70986;DHT22;58645;43.068;25.610;2023-12-14T02:19:06;12.70;92.40
70986;DHT22;58645;43.068;25.610;2023-12-14T02:21:31;12.70;92.20
70986;DHT22;58645;43.068;25.610;2023-12-14T02:23:57;12.70;91.80
70986;DHT22;58645;43.068;25.610;2023-12-14T02:26:23;12.70;91.90
70986;DHT22;58645;43.068;25.610;2023-12-14T02:28:48;12.70;91.90
70986;DHT22;58645;43.068;25.610;2023-12-14T02:31:14;12.60;92.10
70986;DHT22;58645;43.068;25.610;2023-12-14T02:33:40;12.60;91.50
70986;DHT22;58645;43.068;25.610;2023-12-14T02:36:07;12.60;91.30
70986;DHT22;58645;43.068;25.610;2023-12-14T02:38:33;12.70;91.60
70986;DHT22;58645;43.068;25.610;2023-12-14T02:40:58;12.70;91.20
70986;DHT22;58645;43.068;25.610;2023-12-14T02:43:24;12.70;91.00
70986;DHT22;58645;43.068;25.610;2023-12-14T02:45:50;12.70;90.80
70986;DHT22;58645;43.068;25.610;2023-12-14T02:48:16;12.70;91.10
70986;DHT22;58645;43.068;25.610;2023-12-14T02:50:42;12.70;90.60
70986;DHT22;58645;43.068;25.610;2023-12-14T02:53:07;12.80;90.00
70986;DHT22;58645;43.068;25.610;2023-12-14T02:55:33;12.80;89.80
70986;DHT22;58645;43.068;25.610;2023-12-14T02:57:59;12.80;89.80
70986;DHT22;58645;43.068;25.610;2023-12-14T03:00:24;12.90;89.50
70986;DHT22;58645;43.068;25.610;2023-12-14T03:02:50;12.90;89.30
70986;DHT22;58645;43.068;25.610;2023-12-14T03:05:16;12.90;89.80
70986;DHT22;58645;43.068;25.610;2023-12-14T03:07:41;12.90;89.50
70986;DHT22;58645;43.068;25.610;2023-12-14T03:10:08;12.80;89.30
70986;DHT22;58645;43.068;25.610;2023-12-14T03:12:33;12.80;89.40
70986;DHT22;58645;43.068;25.610;2023-12-14T03:14:59;12.80;89.50
70986;DHT22;58645;43.068;25.610;2023-12-14T03:17:25;12.80;89.10
70986;DHT22;58645;43.068;25.610;2023-12-14T03:19:51;12.80;89.00
70986;DHT22;58645;43.068;25.610;2023-12-14T03:22:16;12.90;88.50
70986;DHT22;58645;43.068;25.610;2023-12-14T03:24:42;12.90;88.40
70986;DHT22;58645;43.068;25.610;2023-12-14T03:27:08;12.90;88.00
70986;DHT22;58645;43.068;25.610;2023-12-14T03:29:34;12.90;87.90
70986;DHT22;58645;43.068;25.610;2023-12-14T03:32:00;13.00;87.80
70986;DHT22;58645;43.068;25.610;2023-12-14T03:34:26;13.00;87.60
70986;DHT22;58645;43.068;25.610;2023-12-14T03:36:52;13.00;87.30
70986;DHT22;58645;43.068;25.610;2023-12-14T03:39:18;13.10;86.40
70986;DHT22;58645;43.068;25.610;2023-12-14T03:41:44;13.20;86.10
70986;DHT22;58645;43.068;25.610;2023-12-14T03:44:10;13.20;85.70
70986;DHT22;58645;43.068;25.610;2023-12-14T03:46:36;13.20;85.20
70986;DHT22;58645;43.068;25.610;2023-12-14T03:49:02;13.30;84.70
70986;DHT22;58645;43.068;25.610;2023-12-14T03:51:28;13.30;84.20
70986;DHT22;58645;43.068;25.610;2023-12-14T03:53:53;13.40;83.60
70986;DHT22;58645;43.068;25.610;2023-12-14T03:56:19;13.50;83.10
70986;DHT22;58645;43.068;25.610;2023-12-14T03:58:45;13.60;83.10
70986;DHT22;58645;43.068;25.610;2023-12-14T04:01:18;13.60;82.90
70986;DHT22;58645;43.068;25.610;2023-12-14T04:03:45;13.60;82.70
70986;DHT22;58645;43.068;25.610;2023-12-14T04:06:12;13.60;82.60
70986;DHT22;58645;43.068;25.610;2023-12-14T04:08:38;13.60;81.90
70986;DHT22;58645;43.068;25.610;2023-12-14T04:11:04;13.60;81.80
70986;DHT22;58645;43.068;25.610;2023-12-14T04:13:30;13.60;81.80
70986;DHT22;58645;43.068;25.610;2023-12-14T04:15:56;13.50;81.90
70986;DHT22;58645;43.068;25.610;2023-12-14T04:18:23;13.60;81.80
70986;DHT22;58645;43.068;25.610;2023-12-14T04:20:49;13.50;81.80
70986;DHT22;58645;43.068;25.610;2023-12-14T04:23:14;13.60;81.80
70986;DHT22;58645;43.068;25.610;2023-12-14T04:25:40;13.50;82.00
70986;DHT22;58645;43.068;25.610;2023-12-14T04:28:06;13.50;82.10
70986;DHT22;58645;43.068;25.610;2023-12-14T04:30:32;13.50;81.80
70986;DHT22;58645;43.068;25.610;2023-12-14T04:32:57;13.50;82.00
70986;DHT22;58645;43.068;25.610;2023-12-14T04:35:23;13.40;82.10
70986;DHT22;58645;43.068;25.610;2023-12-14T04:37:49;13.50;81.80
70986;DHT22;58645;43.068;25.610;2023-12-14T04:40:15;13.60;81.10
70986;DHT22;58645;43.068;25.610;2023-12-14T04:42:40;13.70;80.60
70986;DHT22;58645;43.068;25.610;2023-12-14T04:45:06;13.80;80.10
70986;DHT22;58645;43.068;25.610;2023-12-14T04:47:35;13.80;79.70
70986;DHT22;58645;43.068;25.610;2023-12-14T04:50:01;13.90;79.40
70986;DHT22;58645;43.068;25.610;2023-12-14T04:52:27;14.00;79.00
70986;DHT22;58645;43.068;25.610;2023-12-14T04:54:53;14.00;78.90
70986;DHT22;58645;43.068;25.610;2023-12-14T04:57:19;14.10;78.20
70986;DHT22;58645;43.068;25.610;2023-12-14T04:59:47;14.10;78.10
70986;DHT22;58645;43.068;25.610;2023-12-14T05:02:13;14.20;77.40
70986;DHT22;58645;43.068;25.610;2023-12-14T05:04:39;14.30;77.20
70986;DHT22;58645;43.068;25.610;2023-12-14T05:07:05;14.30;77.10
70986;DHT22;58645;43.068;25.610;2023-12-14T05:09:33;14.30;77.20
70986;DHT22;58645;43.068;25.610;2023-12-14T05:11:59;14.30;77.10
70986;DHT22;58645;43.068;25.610;2023-12-14T05:14:25;14.30;76.80
70986;DHT22;58645;43.068;25.610;2023-12-14T05:16:53;14.20;76.50
70986;DHT22;58645;43.068;25.610;2023-12-14T05:19:18;14.20;76.50
70986;DHT22;58645;43.068;25.610;2023-12-14T05:21:44;14.20;76.40
70986;DHT22;58645;43.068;25.610;2023-12-14T05:24:10;14.20;76.60
70986;DHT22;58645;43.068;25.610;2023-12-14T05:26:35;14.20;76.40
70986;DHT22;58645;43.068;25.610;2023-12-14T05:29:01;14.20;76.40
70986;DHT22;58645;43.068;25.610;2023-12-14T05:31:27;14.20;76.40
70986;DHT22;58645;43.068;25.610;2023-12-14T05:33:56;14.10;76.60
70986;DHT22;58645;43.068;25.610;2023-12-14T05:36:22;13.90;76.40
70986;DHT22;58645;43.068;25.610;2023-12-14T05:38:47;14.10;76.70
70986;DHT22;58645;43.068;25.610;2023-12-14T05:41:13;14.10;76.90
70986;DHT22;58645;43.068;25.610;2023-12-14T05:43:39;14.00;76.70
70986;DHT22;58645;43.068;25.610;2023-12-14T05:46:05;14.00;77.20
70986;DHT22;58645;43.068;25.610;2023-12-14T05:48:46;14.20;77.60
70986;DHT22;58645;43.068;25.610;2023-12-14T05:51:13;13.90;77.20
70986;DHT22;58645;43.068;25.610;2023-12-14T05:53:38;13.90;77.20
70986;DHT22;58645;43.068;25.610;2023-12-14T05:56:05;13.90;76.90
70986;DHT22;58645;43.068;25.610;2023-12-14T05:58:31;13.90;77.30
70986;DHT22;58645;43.068;25.610;2023-12-14T06:01:23;14.00;76.90
70986;DHT22;58645;43.068;25.610;2023-12-14T06:03:58;14.00;77.10
70986;DHT22;58645;43.068;25.610;2023-12-14T06:06:24;14.00;76.50
70986;DHT22;58645;43.068;25.610;2023-12-14T06:08:50;14.00;76.90
70986;DHT22;58645;43.068;25.610;2023-12-14T06:11:16;14.00;76.40
70986;DHT22;58645;43.068;25.610;2023-12-14T06:13:42;14.00;76.30
70986;DHT22;58645;43.068;25.610;2023-12-14T06:16:12;14.10;76.00
70986;DHT22;58645;43.068;25.610;2023-12-14T06:18:40;14.10;76.20
70986;DHT22;58645;43.068;25.610;2023-12-14T06:21:11;14.10;76.00
70986;DHT22;58645;43.068;25.610;2023-12-14T06:23:37;14.20;75.80
70986;DHT22;58645;43.068;25.610;2023-12-14T06:26:03;14.20;75.20
70986;DHT22;58645;43.068;25.610;2023-12-14T06:28:30;14.30;74.80
70986;DHT22;58645;43.068;25.610;2023-12-14T06:30:58;14.30;74.60
70986;DHT22;58645;43.068;25.610;2023-12-14T06:33:27;14.40;74.50
70986;DHT22;58645;43.068;25.610;2023-12-14T06:35:53;14.40;74.50
70986;DHT22;58645;43.068;25.610;2023-12-14T06:38:19;14.50;74.00
70986;DHT22;58645;43.068;25.610;2023-12-14T06:40:45;14.60;73.60
70986;DHT22;58645;43.068;25.610;2023-12-14T06:43:11;14.60;73.60
70986;DHT22;58645;43.068;25.610;2023-12-14T06:45:46;14.70;73.10
70986;DHT22;58645;43.068;25.610;2023-12-14T06:48:20;14.60;72.80
70986;DHT22;58645;43.068;25.610;2023-12-14T06:50:47;14.90;72.30
70986;DHT22;58645;43.068;25.610;2023-12-14T06:53:13;14.90;71.80
70986;DHT22;58645;43.068;25.610;2023-12-14T06:55:41;15.00;71.70
70986;DHT22;58645;43.068;25.610;2023-12-14T06:58:07;15.00;71.10
70986;DHT22;58645;43.068;25.610;2023-12-14T07:00:37;15.10;71.00
70986;DHT22;58645;43.068;25.610;2023-12-14T07:03:03;15.10;70.80
70986;DHT22;58645;43.068;25.610;2023-12-14T07:05:31;15.10;71.00
70986;DHT22;58645;43.068;25.610;2023-12-14T07:07:58;15.10;70.80
70986;DHT22;58645;43.068;25.610;2023-12-14T07:10:24;15.20;70.40
70986;DHT22;58645;43.068;25.610;2023-12-14T07:12:50;15.20;70.30
70986;DHT22;58645;43.068;25.610;2023-12-14T07:15:16;15.30;70.20
70986;DHT22;58645;43.068;25.610;2023-12-14T07:17:45;15.30;69.90
70986;DHT22;58645;43.068;25.610;2023-12-14T07:20:11;15.40;69.50
70986;DHT22;58645;43.068;25.610;2023-12-14T07:22:37;15.40;69.30
70986;DHT22;58645;43.068;25.610;2023-12-14T07:25:04;15.50;69.80
70986;DHT22;58645;43.068;25.610;2023-12-14T07:27:29;15.60;69.70
70986;DHT22;58645;43.068;25.610;2023-12-14T07:29:56;15.10;71.10
70986;DHT22;58645;43.068;25.610;2023-12-14T07:32:22;14.20;74.80
70986;DHT22;58645;43.068;25.610;2023-12-14T07:34:48;13.30;77.80
70986;DHT22;58645;43.068;25.610;2023-12-14T07:37:16;12.90;79.70
70986;DHT22;58645;43.068;25.610;2023-12-14T07:39:47;12.40;82.50
70986;DHT22;58645;43.068;25.610;2023-12-14T07:42:13;12.00;84.30
70986;DHT22;58645;43.068;25.610;2023-12-14T07:44:49;11.70;86.60
70986;DHT22;58645;43.068;25.610;2023-12-14T07:47:21;11.40;89.20
70986;DHT22;58645;43.068;25.610;2023-12-14T07:49:47;11.20;91.80
70986;DHT22;58645;43.068;25.610;2023-12-14T07:52:17;10.90;95.80
70986;DHT22;58645;43.068;25.610;2023-12-14T07:55:06;10.70;99.90
70986;DHT22;58645;43.068;25.610;2023-12-14T07:57:33;10.70;99.90
70986;DHT22;58645;43.068;25.610;2023-12-14T07:59:58;10.80;99.90
70986;DHT22;58645;43.068;25.610;2023-12-14T08:02:24;10.80;99.90
70986;DHT22;58645;43.068;25.610;2023-12-14T08:04:50;10.80;99.90
70986;DHT22;58645;43.068;25.610;2023-12-14T08:07:16;10.60;99.90
70986;DHT22;58645;43.068;25.610;2023-12-14T08:09:41;10.60;99.90
70986;DHT22;58645;43.068;25.610;2023-12-14T08:12:07;10.50;99.90
70986;DHT22;58645;43.068;25.610;2023-12-14T08:14:34;10.30;99.90
70986;DHT22;58645;43.068;25.610;2023-12-14T08:17:03;10.20;99.90
70986;DHT22;58645;43.068;25.610;2023-12-14T08:19:30;10.10;99.90
70986;DHT22;58645;43.068;25.610;2023-12-14T08:21:55;10.10;99.90
70986;DHT22;58645;43.068;25.610;2023-12-14T08:24:21;10.10;99.90
70986;DHT22;58645;43.068;25.610;2023-12-14T08:26:47;10.10;99.90
70986;DHT22;58645;43.068;25.610;2023-12-14T08:29:17;10.30;99.90
70986;DHT22;58645;43.068;25.610;2023-12-14T08:31:44;10.50;99.90
70986;DHT22;58645;43.068;25.610;2023-12-14T08:34:10;10.50;99.90
70986;DHT22;58645;43.068;25.610;2023-12-14T08:36:38;10.50;99.90
70986;DHT22;58645;43.068;25.610;2023-12-14T08:39:04;10.50;99.90
70986;DHT22;58645;43.068;25.610;2023-12-14T08:41:30;10.40;99.90
70986;DHT22;58645;43.068;25.610;2023-12-14T08:43:56;10.10;99.90
70986;DHT22;58645;43.068;25.610;2023-12-14T08:46:22;9.90;99.90
70986;DHT22;58645;43.068;25.610;2023-12-14T08:48:48;9.60;99.90
70986;DHT22;58645;43.068;25.610;2023-12-14T08:51:14;9.40;99.90
70986;DHT22;58645;43.068;25.610;2023-12-14T08:53:40;9.10;99.90
70986;DHT22;58645;43.068;25.610;2023-12-14T08:56:06;9.00;99.90
70986;DHT22;58645;43.068;25.610;2023-12-14T08:58:43;9.00;99.90
70986;DHT22;58645;43.068;25.610;2023-12-14T09:01:21;8.70;99.90
70986;DHT22;58645;43.068;25.610;2023-12-14T09:03:48;9.00;99.90
70986;DHT22;58645;43.068;25.610;2023-12-14T09:06:18;9.20;99.90
70986;DHT22;58645;43.068;25.610;2023-12-14T09:08:45;9.50;99.90
70986;DHT22;58645;43.068;25.610;2023-12-14T09:11:12;9.70;99.90
70986;DHT22;58645;43.068;25.610;2023-12-14T09:13:38;10.00;99.90
70986;DHT22;58645;43.068;25.610;2023-12-14T09:16:18;10.20;99.90
70986;DHT22;58645;43.068;25.610;2023-12-14T09:18:44;10.50;99.90
70986;DHT22;58645;43.068;25.610;2023-12-14T09:21:10;10.80;99.90
70986;DHT22;58645;43.068;25.610;2023-12-14T09:23:38;10.90;99.90
70986;DHT22;58645;43.068;25.610;2023-12-14T09:26:06;11.20;99.90
70986;DHT22;58645;43.068;25.610;2023-12-14T09:28:32;11.50;99.90
70986;DHT22;58645;43.068;25.610;2023-12-14T09:30:57;11.80;99.90
70986;DHT22;58645;43.068;25.610;2023-12-14T09:33:23;12.20;99.90
70986;DHT22;58645;43.068;25.610;2023-12-14T09:35:49;12.30;98.90
70986;DHT22;58645;43.068;25.610;2023-12-14T09:38:15;12.40;98.10
70986;DHT22;58645;43.068;25.610;2023-12-14T09:40:43;12.40;98.20
70986;DHT22;58645;43.068;25.610;2023-12-14T09:43:10;12.60;97.40
70986;DHT22;58645;43.068;25.610;2023-12-14T09:45:38;12.80;97.00
70986;DHT22;58645;43.068;25.610;2023-12-14T09:48:08;12.90;96.30
70986;DHT22;58645;43.068;25.610;2023-12-14T09:50:35;13.00;94.20
70986;DHT22;58645;43.068;25.610;2023-12-14T09:53:02;13.00;93.80
70986;DHT22;58645;43.068;25.610;2023-12-14T09:55:28;13.00;92.90
70986;DHT22;58645;43.068;25.610;2023-12-14T09:57:54;12.90;93.20
70986;DHT22;58645;43.068;25.610;2023-12-14T10:00:41;12.90;93.20
70986;DHT22;58645;43.068;25.610;2023-12-14T10:03:21;12.90;94.80
70986;DHT22;58645;43.068;25.610;2023-12-14T10:05:48;12.90;94.50
70986;DHT22;58645;43.068;25.610;2023-12-14T10:08:15;13.00;94.80
70986;DHT22;58645;43.068;25.610;2023-12-14T10:10:42;13.10;94.80
70986;DHT22;58645;43.068;25.610;2023-12-14T10:13:09;13.40;93.10
70986;DHT22;58645;43.068;25.610;2023-12-14T10:15:42;13.50;92.30
70986;DHT22;58645;43.068;25.610;2023-12-14T10:18:08;13.60;91.70
70986;DHT22;58645;43.068;25.610;2023-12-14T10:20:34;13.90;90.90
70986;DHT22;58645;43.068;25.610;2023-12-14T10:23:00;14.10;91.20
70986;DHT22;58645;43.068;25.610;2023-12-14T10:25:26;14.80;88.30
70986;DHT22;58645;43.068;25.610;2023-12-14T10:27:53;15.10;85.90
70986;DHT22;58645;43.068;25.610;2023-12-14T10:30:26;16.00;83.10
70986;DHT22;58645;43.068;25.610;2023-12-14T10:32:54;16.60;78.40
70986;DHT22;58645;43.068;25.610;2023-12-14T10:35:25;16.80;77.80
70986;DHT22;58645;43.068;25.610;2023-12-14T10:38:06;17.00;74.60
70986;DHT22;58645;43.068;25.610;2023-12-14T10:40:34;17.40;72.70
70986;DHT22;58645;43.068;25.610;2023-12-14T10:43:03;17.40;72.00
70986;DHT22;58645;43.068;25.610;2023-12-14T10:45:32;17.50;71.80
70986;DHT22;58645;43.068;25.610;2023-12-14T10:48:00;17.40;70.10
70986;DHT22;58645;43.068;25.610;2023-12-14T10:50:30;17.70;69.00
70986;DHT22;58645;43.068;25.610;2023-12-14T10:53:00;18.30;67.20
70986;DHT22;58645;43.068;25.610;2023-12-14T10:55:28;18.30;66.10
70986;DHT22;58645;43.068;25.610;2023-12-14T10:57:58;18.30;67.10
70986;DHT22;58645;43.068;25.610;2023-12-14T11:00:26;17.70;68.90
70986;DHT22;58645;43.068;25.610;2023-12-14T11:02:52;17.60;70.10
70986;DHT22;58645;43.068;25.610;2023-12-14T11:05:19;17.30;71.10
70986;DHT22;58645;43.068;25.610;2023-12-14T11:08:10;17.30;71.40
70986;DHT22;58645;43.068;25.610;2023-12-14T11:10:52;16.70;73.60
70986;DHT22;58645;43.068;25.610;2023-12-14T11:13:21;16.60;73.70
70986;DHT22;58645;43.068;25.610;2023-12-14T11:15:48;16.20;75.90
70986;DHT22;58645;43.068;25.610;2023-12-14T11:23:14;15.80;77.90
70986;DHT22;58645;43.068;25.610;2023-12-14T11:25:42;15.70;78.40
70986;DHT22;58645;43.068;25.610;2023-12-14T11:28:09;15.70;78.90
70986;DHT22;58645;43.068;25.610;2023-12-14T11:30:36;15.80;78.60
70986;DHT22;58645;43.068;25.610;2023-12-14T11:33:03;15.60;79.00
70986;DHT22;58645;43.068;25.610;2023-12-14T11:35:29;15.60;79.20
70986;DHT22;58645;43.068;25.610;2023-12-14T11:37:55;15.50;80.10
70986;DHT22;58645;43.068;25.610;2023-12-14T11:40:25;15.50;80.30
70986;DHT22;58645;43.068;25.610;2023-12-14T11:42:58;15.60;79.40
70986;DHT22;58645;43.068;25.610;2023-12-14T11:45:24;15.80;79.40
70986;DHT22;58645;43.068;25.610;2023-12-14T11:47:51;15.80;79.30
70986;DHT22;58645;43.068;25.610;2023-12-14T11:50:17;15.70;79.70
70986;DHT22;58645;43.068;25.610;2023-12-14T11:52:44;15.60;79.80
70986;DHT22;58645;43.068;25.610;2023-12-14T11:55:14;15.50;79.60
70986;DHT22;58645;43.068;25.610;2023-12-14T11:57:46;15.40;80.00
70986;DHT22;58645;43.068;25.610;2023-12-14T12:00:13;15.30;80.90
70986;DHT22;58645;43.068;25.610;2023-12-14T12:02:39;15.20;81.60
70986;DHT22;58645;43.068;25.610;2023-12-14T12:05:08;15.50;81.90
70986;DHT22;58645;43.068;25.610;2023-12-14T12:07:39;14.90;82.60
70986;DHT22;58645;43.068;25.610;2023-12-14T12:10:10;14.80;83.40
70986;DHT22;58645;43.068;25.610;2023-12-14T12:12:36;14.70;83.90
70986;DHT22;58645;43.068;25.610;2023-12-14T12:15:03;14.60;84.90
70986;DHT22;58645;43.068;25.610;2023-12-14T12:17:29;14.50;85.40
70986;DHT22;58645;43.068;25.610;2023-12-14T12:19:57;14.40;86.00
70986;DHT22;58645;43.068;25.610;2023-12-14T12:22:23;14.30;87.40
70986;DHT22;58645;43.068;25.610;2023-12-14T12:24:48;14.20;87.90
70986;DHT22;58645;43.068;25.610;2023-12-14T12:27:15;14.10;88.40
70986;DHT22;58645;43.068;25.610;2023-12-14T12:29:41;14.10;90.40
70986;DHT22;58645;43.068;25.610;2023-12-14T12:32:07;14.00;90.90
70986;DHT22;58645;43.068;25.610;2023-12-14T12:34:33;13.90;92.30
70986;DHT22;58645;43.068;25.610;2023-12-14T12:36:58;13.90;93.10
70986;DHT22;58645;43.068;25.610;2023-12-14T12:39:24;13.90;94.90
70986;DHT22;58645;43.068;25.610;2023-12-14T12:41:50;13.80;95.90
70986;DHT22;58645;43.068;25.610;2023-12-14T12:44:16;13.70;97.70
70986;DHT22;58645;43.068;25.610;2023-12-14T12:46:42;13.70;99.50
70986;DHT22;58645;43.068;25.610;2023-12-14T12:49:08;13.60;99.90
70986;DHT22;58645;43.068;25.610;2023-12-14T12:51:34;13.60;99.90
70986;DHT22;58645;43.068;25.610;2023-12-14T12:54:00;13.50;99.90
70986;DHT22;58645;43.068;25.610;2023-12-14T12:56:27;13.40;99.90
70986;DHT22;58645;43.068;25.610;2023-12-14T12:58:53;13.40;99.90
70986;DHT22;58645;43.068;25.610;2023-12-14T13:01:22;13.30;99.90
70986;DHT22;58645;43.068;25.610;2023-12-14T13:03:55;13.20;99.90
70986;DHT22;58645;43.068;25.610;2023-12-14T13:06:26;13.10;99.90
70986;DHT22;58645;43.068;25.610;2023-12-14T13:08:52;13.10;99.90
70986;DHT22;58645;43.068;25.610;2023-12-14T13:11:19;13.10;99.90
70986;DHT22;58645;43.068;25.610;2023-12-14T13:13:45;13.00;99.90
70986;DHT22;58645;43.068;25.610;2023-12-14T13:16:11;12.80;99.90
70986;DHT22;58645;43.068;25.610;2023-12-14T13:18:40;12.70;99.90
70986;DHT22;58645;43.068;25.610;2023-12-14T13:21:06;12.60;99.90
70986;DHT22;58645;43.068;25.610;2023-12-14T13:23:32;12.60;99.90
70986;DHT22;58645;43.068;25.610;2023-12-14T13:25:58;12.30;99.90
70986;DHT22;58645;43.068;25.610;2023-12-14T13:28:24;12.30;99.90
70986;DHT22;58645;43.068;25.610;2023-12-14T13:30:50;12.20;99.90
70986;DHT22;58645;43.068;25.610;2023-12-14T13:33:16;12.10;99.90
70986;DHT22;58645;43.068;25.610;2023-12-14T13:35:41;12.10;99.90
70986;DHT22;58645;43.068;25.610;2023-12-14T13:38:08;12.00;99.90
70986;DHT22;58645;43.068;25.610;2023-12-14T13:40:34;11.90;99.90
70986;DHT22;58645;43.068;25.610;2023-12-14T13:43:00;11.90;99.90
70986;DHT22;58645;43.068;25.610;2023-12-14T13:45:29;11.80;99.90
70986;DHT22;58645;43.068;25.610;2023-12-14T13:47:56;11.80;99.90
70986;DHT22;58645;43.068;25.610;2023-12-14T13:50:23;11.60;99.90
70986;DHT22;58645;43.068;25.610;2023-12-14T13:52:51;11.70;99.90
70986;DHT22;58645;43.068;25.610;2023-12-14T13:55:17;11.60;99.90
70986;DHT22;58645;43.068;25.610;2023-12-14T13:57:43;11.60;99.90
70986;DHT22;58645;43.068;25.610;2023-12-14T14:00:09;11.60;99.90
70986;DHT22;58645;43.068;25.610;2023-12-14T14:02:35;11.50;99.90
70986;DHT22;58645;43.068;25.610;2023-12-14T14:05:00;11.50;99.90
70986;DHT22;58645;43.068;25.610;2023-12-14T14:07:26;11.40;99.90
70986;DHT22;58645;43.068;25.610;2023-12-14T14:09:52;11.30;99.90
70986;DHT22;58645;43.068;25.610;2023-12-14T14:12:18;11.30;99.90
70986;DHT22;58645;43.068;25.610;2023-12-14T14:14:44;11.30;99.90
70986;DHT22;58645;43.068;25.610;2023-12-14T14:17:10;11.20;99.90
70986;DHT22;58645;43.068;25.610;2023-12-14T14:19:36;11.20;99.90
70986;DHT22;58645;43.068;25.610;2023-12-14T14:22:02;11.10;99.90
70986;DHT22;58645;43.068;25.610;2023-12-14T14:24:28;11.00;99.90
70986;DHT22;58645;43.068;25.610;2023-12-14T14:26:54;11.00;99.90
70986;DHT22;58645;43.068;25.610;2023-12-14T14:29:20;11.00;99.90
70986;DHT22;58645;43.068;25.610;2023-12-14T14:31:46;10.90;99.90
70986;DHT22;58645;43.068;25.610;2023-12-14T14:34:11;10.90;99.90
70986;DHT22;58645;43.068;25.610;2023-12-14T14:36:37;10.90;99.90
70986;DHT22;58645;43.068;25.610;2023-12-14T14:39:03;10.80;99.90
70986;DHT22;58645;43.068;25.610;2023-12-14T14:41:30;10.80;99.90
70986;DHT22;58645;43.068;25.610;2023-12-14T14:43:56;10.80;99.90
70986;DHT22;58645;43.068;25.610;2023-12-14T14:46:22;10.80;99.90
70986;DHT22;58645;43.068;25.610;2023-12-14T14:48:48;10.70;99.90
70986;DHT22;58645;43.068;25.610;2023-12-14T14:51:14;10.70;99.90
70986;DHT22;58645;43.068;25.610;2023-12-14T14:53:40;10.70;99.90
70986;DHT22;58645;43.068;25.610;2023-12-14T14:56:09;10.70;99.90
70986;DHT22;58645;43.068;25.610;2023-12-14T14:58:35;10.60;99.90
70986;DHT22;58645;43.068;25.610;2023-12-14T15:01:01;10.60;99.90
70986;DHT22;58645;43.068;25.610;2023-12-14T15:03:27;10.60;99.90
70986;DHT22;58645;43.068;25.610;2023-12-14T15:05:53;10.60;99.90
70986;DHT22;58645;43.068;25.610;2023-12-14T15:08:19;10.60;99.90
70986;DHT22;58645;43.068;25.610;2023-12-14T15:10:44;10.60;99.90
70986;DHT22;58645;43.068;25.610;2023-12-14T15:13:10;10.50;99.90
70986;DHT22;58645;43.068;25.610;2023-12-14T15:15:37;10.60;99.90
70986;DHT22;58645;43.068;25.610;2023-12-14T15:18:04;10.60;99.90
70986;DHT22;58645;43.068;25.610;2023-12-14T15:20:29;10.60;99.90